createdAt,value
2022-10-09T00:02:04.695Z,0.70
2022-10-09T00:04:50.356Z,4.07
2022-10-09T00:07:36.036Z,2.92
2022-10-09T00:10:22.267Z,0.60
2022-10-09T00:13:07.893Z,0.32
2022-10-09T00:15:53.423Z,0.90
2022-10-09T00:18:39.768Z,0.65
2022-10-09T00:21:34.086Z,0.25
2022-10-09T00:24:19.403Z,0.10
2022-10-09T00:27:04.906Z,0.75
2022-10-09T00:29:51.215Z,0.38
2022-10-09T00:32:37.048Z,0.80
2022-10-09T00:35:23.645Z,0.20
2022-10-09T00:38:10.092Z,0.28
2022-10-09T00:40:55.955Z,1.95
2022-10-09T00:43:43.050Z,2.20
2022-10-09T00:46:35.098Z,0.10
2022-10-09T00:49:29.783Z,0.20
2022-10-09T00:52:16.382Z,0.10
2022-10-09T00:55:03.866Z,0.10
2022-10-09T00:57:51.010Z,0.20
2022-10-09T01:00:36.804Z,0.43
2022-10-09T01:03:22.478Z,0.20
2022-10-09T01:06:16.642Z,0.10
2022-10-09T01:09:05.171Z,0.90
2022-10-09T01:12:00.704Z,0.20
2022-10-09T01:15:15.858Z,0.10
2022-10-09T01:18:01.113Z,0.82
2022-10-09T01:20:54.063Z,1.05
2022-10-09T01:24:05.278Z,0.90
2022-10-09T01:27:00.152Z,0.28
2022-10-09T01:29:55.252Z,0.20
2022-10-09T01:32:51.094Z,0.28
2022-10-09T01:35:38.026Z,0.10
2022-10-09T01:38:24.950Z,0.15
2022-10-09T01:41:10.690Z,0.10
2022-10-09T01:43:56.321Z,0.10
2022-10-09T01:46:42.205Z,0.10
2022-10-09T01:49:42.037Z,0.32
2022-10-09T01:52:44.306Z,0.10
2022-10-09T01:55:54.320Z,0.75
2022-10-09T01:59:02.716Z,0.10
2022-10-09T02:01:49.839Z,0.10
2022-10-09T02:04:39.069Z,0.20
2022-10-09T02:07:26.030Z,0.70
2022-10-09T02:10:13.465Z,0.10
2022-10-09T02:13:01.385Z,0.55
2022-10-09T02:15:55.699Z,0.77
2022-10-09T02:18:45.599Z,2.75
2022-10-09T02:21:54.528Z,1.77
2022-10-09T02:24:41.658Z,4.28
2022-10-09T02:27:27.800Z,0.32
2022-10-09T02:30:15.227Z,0.85
2022-10-09T02:33:00.839Z,0.10
2022-10-09T02:35:47.486Z,0.30
2022-10-09T02:38:33.031Z,2.28
2022-10-09T02:41:18.681Z,0.75
2022-10-09T02:44:05.942Z,0.60
2022-10-09T02:46:51.760Z,0.95
2022-10-09T02:49:37.707Z,0.15
2022-10-09T02:52:23.201Z,1.90
2022-10-09T02:55:09.153Z,4.68
2022-10-09T02:57:54.335Z,7.78
2022-10-09T03:00:39.674Z,10.93
2022-10-09T03:03:25.383Z,5.35
2022-10-09T03:06:18.048Z,9.50
2022-10-09T03:09:04.175Z,5.03
2022-10-09T03:11:49.674Z,7.20
2022-10-09T03:14:35.337Z,7.60
2022-10-09T03:17:20.752Z,3.35
2022-10-09T03:20:07.836Z,5.07
2022-10-09T03:22:53.433Z,3.13
2022-10-09T03:25:38.917Z,2.47
2022-10-09T03:28:25.018Z,4.47
2022-10-09T03:31:18.953Z,3.67
2022-10-09T03:34:16.544Z,2.28
2022-10-09T03:37:01.913Z,3.20
2022-10-09T03:39:47.566Z,0.43
2022-10-09T03:42:33.393Z,2.03
2022-10-09T03:45:18.780Z,0.40
2022-10-09T03:48:04.464Z,3.60
2022-10-09T03:50:50.386Z,2.58
2022-10-09T03:53:35.785Z,0.90
2022-10-09T03:56:21.593Z,1.33
2022-10-09T03:59:09.532Z,0.30
2022-10-09T04:01:55.070Z,2.30
2022-10-09T04:04:40.654Z,1.65
2022-10-09T04:07:26.123Z,2.72
2022-10-09T04:10:12.122Z,3.08
2022-10-09T04:12:57.700Z,3.22
2022-10-09T04:15:50.946Z,5.00
2022-10-09T04:18:36.313Z,3.60
2022-10-09T04:21:22.088Z,4.75
2022-10-09T04:24:08.657Z,4.45
2022-10-09T04:26:54.299Z,2.78
2022-10-09T04:29:39.547Z,2.83
2022-10-09T04:32:25.143Z,1.27
2022-10-09T04:35:10.521Z,3.93
2022-10-09T04:37:56.199Z,0.63
2022-10-09T04:40:42.241Z,1.52
2022-10-09T04:43:28.681Z,5.28
2022-10-09T04:46:15.187Z,0.30
2022-10-09T04:49:00.546Z,1.23
2022-10-09T04:51:47.092Z,2.08
2022-10-09T04:54:32.674Z,0.45
2022-10-09T04:57:18.255Z,1.50
2022-10-09T05:00:05.075Z,1.90
2022-10-09T05:03:05.275Z,2.05
2022-10-09T05:05:51.057Z,2.15
2022-10-09T05:08:37.585Z,1.83
2022-10-09T05:11:24.852Z,4.80
2022-10-09T05:14:10.931Z,5.63
2022-10-09T05:17:13.195Z,2.75
2022-10-09T05:19:59.661Z,5.97
2022-10-09T05:22:46.541Z,6.18
2022-10-09T05:25:32.527Z,2.70
2022-10-09T05:28:18.123Z,3.42
2022-10-09T05:31:08.254Z,8.30
2022-10-09T05:33:55.999Z,4.32
2022-10-09T05:36:41.743Z,6.18
2022-10-09T05:39:28.221Z,1.55
2022-10-09T05:42:13.913Z,4.13
2022-10-09T05:44:59.469Z,4.47
2022-10-09T05:47:46.144Z,4.15
2022-10-09T05:50:31.520Z,7.15
2022-10-09T05:53:16.983Z,2.63
2022-10-09T05:56:14.037Z,1.48
2022-10-09T05:59:09.464Z,12.15
2022-10-09T06:01:55.364Z,6.55
2022-10-09T06:04:41.001Z,8.98
2022-10-09T06:07:26.434Z,7.22
2022-10-09T06:10:12.314Z,6.72
2022-10-09T06:12:58.140Z,7.22
2022-10-09T06:15:54.935Z,5.82
2022-10-09T06:18:48.125Z,7.57
2022-10-09T06:21:34.821Z,7.85
2022-10-09T06:24:27.901Z,3.85
2022-10-09T06:27:14.374Z,1.55
2022-10-09T06:29:59.974Z,12.02
2022-10-09T06:32:45.788Z,11.68
2022-10-09T06:35:34.763Z,1.77
2022-10-09T06:38:20.077Z,15.82
2022-10-09T06:41:07.876Z,14.15
2022-10-09T06:43:54.309Z,6.65
2022-10-09T06:46:41.751Z,5.50
2022-10-09T06:49:27.427Z,6.43
2022-10-09T06:52:12.896Z,6.45
2022-10-09T06:54:58.745Z,7.80
2022-10-09T06:57:44.380Z,0.90
2022-10-09T07:00:30.087Z,5.63
2022-10-09T07:03:16.949Z,6.03
2022-10-09T07:06:14.292Z,6.72
2022-10-09T07:09:02.357Z,2.70
2022-10-09T07:11:50.534Z,3.85
2022-10-09T07:14:36.497Z,1.83
2022-10-09T07:17:21.818Z,4.43
2022-10-09T07:20:08.379Z,11.07
2022-10-09T07:22:53.695Z,7.05
2022-10-09T07:25:39.429Z,6.90
2022-10-09T07:28:27.817Z,6.47
2022-10-09T07:31:14.669Z,3.00
2022-10-09T07:34:00.684Z,8.18
2022-10-09T07:36:46.518Z,2.80
2022-10-09T07:39:32.245Z,14.27
2022-10-09T07:42:17.802Z,14.15
2022-10-09T07:45:03.554Z,13.85
2022-10-09T07:47:49.361Z,19.58
2022-10-09T07:50:34.829Z,13.43
2022-10-09T07:53:20.277Z,10.23
2022-10-09T07:56:06.978Z,8.43
2022-10-09T07:58:55.195Z,9.57
2022-10-09T08:01:42.775Z,9.23
2022-10-09T08:04:28.359Z,9.20
2022-10-09T08:07:14.925Z,13.07
2022-10-09T08:10:00.268Z,15.23
2022-10-09T08:12:46.173Z,15.75
2022-10-09T08:15:31.945Z,9.07
2022-10-09T08:18:19.002Z,17.02
2022-10-09T08:21:23.012Z,8.98
2022-10-09T08:24:11.196Z,10.48
2022-10-09T08:26:56.891Z,7.55
2022-10-09T08:29:42.530Z,9.60
2022-10-09T08:32:28.215Z,12.13
2022-10-09T08:35:13.769Z,5.93
2022-10-09T08:37:59.780Z,13.52
2022-10-09T08:40:58.402Z,16.15
2022-10-09T08:43:48.042Z,13.98
2022-10-09T08:46:46.123Z,5.30
2022-10-09T08:49:37.877Z,13.45
2022-10-09T08:52:38.862Z,15.48
2022-10-09T08:55:41.498Z,12.93
2022-10-09T08:58:32.398Z,26.63
2022-10-09T09:01:44.150Z,14.60
2022-10-09T09:04:35.726Z,14.88
2022-10-09T09:07:41.796Z,17.73
2022-10-09T09:10:39.813Z,15.43
2022-10-09T09:13:42.722Z,15.98
2022-10-09T09:17:20.033Z,11.88
2022-10-09T09:20:06.622Z,12.05
2022-10-09T09:22:52.364Z,19.98
2022-10-09T09:25:42.592Z,15.05
2022-10-09T09:28:34.527Z,7.57
2022-10-09T09:31:27.240Z,18.75
2022-10-09T09:34:41.280Z,14.60
2022-10-09T09:37:26.933Z,16.02
2022-10-09T09:40:36.802Z,18.75
2022-10-09T09:43:23.811Z,23.42
2022-10-09T09:46:25.485Z,19.80
2022-10-09T09:49:23.646Z,9.60
2022-10-09T09:52:09.452Z,10.27
2022-10-09T09:54:58.457Z,15.45
2022-10-09T09:57:45.601Z,13.85
2022-10-09T10:00:31.224Z,9.68
2022-10-09T10:03:18.005Z,12.13
2022-10-09T10:06:03.977Z,13.80
2022-10-09T10:08:59.319Z,16.45
2022-10-09T10:12:06.813Z,15.68
2022-10-09T10:14:52.379Z,4.75
2022-10-09T10:17:38.107Z,14.55
2022-10-09T10:20:24.123Z,13.95
2022-10-09T10:23:35.675Z,8.70
2022-10-09T10:26:36.800Z,5.80
2022-10-09T10:29:40.378Z,12.52
2022-10-09T10:32:49.925Z,2.92
2022-10-09T10:35:38.484Z,10.93
2022-10-09T10:38:31.199Z,11.35
2022-10-09T10:41:25.167Z,8.30
2022-10-09T10:44:25.933Z,9.43
2022-10-09T10:47:19.174Z,10.20
2022-10-09T10:50:10.192Z,9.48
2022-10-09T10:53:23.336Z,7.55
2022-10-09T10:56:26.542Z,5.88
2022-10-09T10:59:37.518Z,10.32
2022-10-09T11:03:00.540Z,4.85
2022-10-09T11:05:58.040Z,6.10
2022-10-09T11:09:24.196Z,11.10
2022-10-09T11:12:30.055Z,9.85
2022-10-09T11:15:45.497Z,14.68
2022-10-09T11:18:41.388Z,13.75
2022-10-09T11:21:41.173Z,8.80
2022-10-09T11:24:45.544Z,3.60
2022-10-09T11:27:52.409Z,6.90
2022-10-09T11:30:54.888Z,15.07
2022-10-09T11:33:50.147Z,17.10
2022-10-09T11:36:44.131Z,6.05
2022-10-09T11:39:32.551Z,11.40
2022-10-09T11:42:23.443Z,16.60
2022-10-09T11:45:27.176Z,8.88
2022-10-09T11:48:54.050Z,11.07
2022-10-09T11:51:54.033Z,4.00
2022-10-09T11:54:40.955Z,10.90
2022-10-09T11:57:29.059Z,11.45
2022-10-09T12:00:15.976Z,6.55
2022-10-09T12:03:06.086Z,10.13
2022-10-09T12:05:51.973Z,8.63
2022-10-09T12:08:41.077Z,10.00
2022-10-09T12:11:26.614Z,8.90
2022-10-09T12:14:23.729Z,10.13
2022-10-09T12:17:36.056Z,9.07
2022-10-09T12:20:25.264Z,11.10
2022-10-09T12:23:26.243Z,12.75
2022-10-09T12:26:14.142Z,11.23
2022-10-09T12:29:05.497Z,5.88
2022-10-09T12:32:00.899Z,8.27
2022-10-09T12:34:49.400Z,9.95
2022-10-09T12:37:36.213Z,6.25
2022-10-09T12:40:27.876Z,2.30
2022-10-09T12:43:17.845Z,8.23
2022-10-09T12:46:06.303Z,7.35
2022-10-09T12:48:51.850Z,2.42
2022-10-09T12:51:37.180Z,7.97
2022-10-09T12:54:25.301Z,5.75
2022-10-09T12:57:16.529Z,7.18
2022-10-09T13:00:02.245Z,9.45
2022-10-09T13:02:47.875Z,3.20
2022-10-09T13:05:41.792Z,5.25
2022-10-09T13:08:30.975Z,5.72
2022-10-09T13:11:28.615Z,6.50
2022-10-09T13:14:45.104Z,3.72
2022-10-09T13:17:38.457Z,2.80
2022-10-09T13:20:31.339Z,4.18
2022-10-09T13:23:46.381Z,2.90
2022-10-09T13:26:32.215Z,7.55
2022-10-09T13:29:17.764Z,6.45
2022-10-09T13:32:03.464Z,3.47
2022-10-09T13:34:50.062Z,7.30
2022-10-09T13:37:35.524Z,7.22
2022-10-09T13:40:22.299Z,8.45
2022-10-09T13:43:07.893Z,2.50
2022-10-09T13:45:54.569Z,5.95
2022-10-09T13:48:40.516Z,1.52
2022-10-09T13:51:25.964Z,5.80
2022-10-09T13:54:11.381Z,2.53
2022-10-09T13:56:57.027Z,4.45
2022-10-09T13:59:42.779Z,3.55
2022-10-09T14:02:28.280Z,4.03
2022-10-09T14:05:13.656Z,3.85
2022-10-09T14:07:59.209Z,2.53
2022-10-09T14:10:46.312Z,3.78
2022-10-09T14:13:32.385Z,3.33
2022-10-09T14:16:18.453Z,2.83
2022-10-09T14:19:05.110Z,2.70
2022-10-09T14:21:50.487Z,1.60
2022-10-09T14:24:36.636Z,2.30
2022-10-09T14:27:22.320Z,0.68
2022-10-09T14:30:11.047Z,1.58
2022-10-09T14:32:56.796Z,5.28
2022-10-09T14:35:42.619Z,0.28
2022-10-09T14:38:28.019Z,1.60
2022-10-09T14:41:14.462Z,1.40
2022-10-09T14:44:01.252Z,3.13
2022-10-09T14:46:47.207Z,1.60
2022-10-09T14:49:32.678Z,1.60
2022-10-09T14:52:18.772Z,1.33
2022-10-09T14:55:05.002Z,3.42
2022-10-09T14:57:50.821Z,4.57
2022-10-09T15:00:36.291Z,4.18
2022-10-09T15:03:22.569Z,0.98
2022-10-09T15:06:10.931Z,2.92
2022-10-09T15:09:05.383Z,2.97
2022-10-09T15:11:51.429Z,3.88
2022-10-09T15:14:36.819Z,1.90
2022-10-09T15:17:22.372Z,1.08
2022-10-09T15:20:08.401Z,3.17
2022-10-09T15:22:53.812Z,4.05
2022-10-09T15:25:39.486Z,2.92
2022-10-09T15:28:25.982Z,2.33
2022-10-09T15:31:25.218Z,3.00
2022-10-09T15:34:17.141Z,2.03
2022-10-09T15:37:03.067Z,1.83
2022-10-09T15:39:48.491Z,3.63
2022-10-09T15:42:37.041Z,2.15
2022-10-09T15:45:22.738Z,2.10
2022-10-09T15:48:19.501Z,0.30
2022-10-09T15:51:07.076Z,4.30
2022-10-09T15:53:56.251Z,1.60
2022-10-09T15:56:42.307Z,1.25
2022-10-09T15:59:30.146Z,0.85
2022-10-09T16:02:16.069Z,3.05
2022-10-09T16:05:03.138Z,0.93
2022-10-09T16:07:49.996Z,3.60
2022-10-09T16:10:42.218Z,2.58
2022-10-09T16:13:30.767Z,1.08
2022-10-09T16:16:23.235Z,1.05
2022-10-09T16:19:08.587Z,2.08
2022-10-09T16:21:54.237Z,2.80
2022-10-09T16:24:40.584Z,2.35
2022-10-09T16:27:26.337Z,1.05
2022-10-09T16:30:14.333Z,1.75
2022-10-09T16:33:00.431Z,2.45
2022-10-09T16:35:46.442Z,1.00
2022-10-09T16:38:32.151Z,0.55
2022-10-09T16:41:19.678Z,2.88
2022-10-09T16:44:12.728Z,4.30
2022-10-09T16:46:58.539Z,6.38
2022-10-09T16:49:44.338Z,4.28
2022-10-09T16:52:30.141Z,1.48
2022-10-09T16:55:16.172Z,0.50
2022-10-09T16:58:01.655Z,0.10
2022-10-09T17:00:47.545Z,2.42
2022-10-09T17:03:34.007Z,2.22
2022-10-09T17:06:19.914Z,3.35
2022-10-09T17:09:13.767Z,4.18
2022-10-09T17:12:00.005Z,4.53
2022-10-09T17:14:47.508Z,5.28
2022-10-09T17:17:35.724Z,4.53
2022-10-09T17:20:21.155Z,5.55
2022-10-09T17:23:06.836Z,3.63
2022-10-09T17:25:52.472Z,2.03
2022-10-09T17:28:40.879Z,2.88
2022-10-09T17:31:27.623Z,3.92
2022-10-09T17:34:13.515Z,3.55
2022-10-09T17:36:59.632Z,2.63
2022-10-09T17:39:51.164Z,4.03
2022-10-09T17:42:37.788Z,3.83
2022-10-09T17:45:23.248Z,3.78
2022-10-09T17:48:10.017Z,2.20
2022-10-09T17:50:57.873Z,2.42
2022-10-09T17:53:46.125Z,2.85
2022-10-09T17:56:32.300Z,0.68
2022-10-09T17:59:18.294Z,1.65
2022-10-09T18:02:04.389Z,3.58
2022-10-09T18:04:50.145Z,2.33
2022-10-09T18:07:35.534Z,2.60
2022-10-09T18:10:22.146Z,1.80
2022-10-09T18:13:09.259Z,0.90
2022-10-09T18:15:55.416Z,2.88
2022-10-09T18:18:41.581Z,2.88
2022-10-09T18:21:27.766Z,1.95
2022-10-09T18:24:14.279Z,4.15
2022-10-09T18:26:59.800Z,3.28
2022-10-09T18:29:47.917Z,0.28
2022-10-09T18:32:33.243Z,2.15
2022-10-09T18:35:19.007Z,1.35
2022-10-09T18:38:07.640Z,6.60
2022-10-09T18:40:58.447Z,1.85
2022-10-09T18:43:46.295Z,1.10
2022-10-09T18:46:38.104Z,1.35
2022-10-09T18:49:28.172Z,0.85
2022-10-09T18:52:15.469Z,3.33
2022-10-09T18:55:02.549Z,1.38
2022-10-09T18:57:48.589Z,1.27
2022-10-09T19:00:35.017Z,1.73
2022-10-09T19:03:20.791Z,2.50
2022-10-09T19:06:06.560Z,1.58
2022-10-09T19:08:53.411Z,2.10
2022-10-09T19:11:39.405Z,3.35
2022-10-09T19:14:25.093Z,1.90
2022-10-09T19:17:11.208Z,1.90
2022-10-09T19:19:56.766Z,3.78
2022-10-09T19:22:42.263Z,1.92
2022-10-09T19:25:27.846Z,3.28
2022-10-09T19:28:13.756Z,0.90
2022-10-09T19:31:02.675Z,2.17
2022-10-09T19:33:48.520Z,1.63
2022-10-09T19:36:36.656Z,3.25
2022-10-09T19:39:22.385Z,3.92
2022-10-09T19:42:08.209Z,4.68
2022-10-09T19:44:53.835Z,2.10
2022-10-09T19:47:39.311Z,3.08
2022-10-09T19:50:24.881Z,1.40
2022-10-09T19:53:12.170Z,2.67
2022-10-09T19:55:58.662Z,3.17
2022-10-09T19:58:46.117Z,4.85
2022-10-09T20:01:35.219Z,0.43
2022-10-09T20:04:20.796Z,2.17
2022-10-09T20:07:12.321Z,2.50
2022-10-09T20:09:59.373Z,3.47
2022-10-09T20:12:44.940Z,2.15
2022-10-09T20:15:30.574Z,5.22
2022-10-09T20:18:17.622Z,2.88
2022-10-09T20:21:03.468Z,1.40
2022-10-09T20:23:50.314Z,0.95
2022-10-09T20:26:40.916Z,1.02
2022-10-09T20:29:29.011Z,3.75
2022-10-09T20:32:15.331Z,2.00
2022-10-09T20:35:02.449Z,4.07
2022-10-09T20:37:48.135Z,2.25
2022-10-09T20:40:35.656Z,1.75
2022-10-09T20:43:21.351Z,1.73
2022-10-09T20:46:13.363Z,2.47
2022-10-09T20:48:59.659Z,3.88
2022-10-09T20:51:45.447Z,1.08
2022-10-09T20:54:31.572Z,1.98
2022-10-09T20:57:17.297Z,1.75
2022-10-09T21:00:04.000Z,4.97
2022-10-09T21:02:49.867Z,1.95
2022-10-09T21:05:41.676Z,0.45
2022-10-09T21:08:29.089Z,3.20
2022-10-09T21:11:17.230Z,3.13
2022-10-09T21:14:03.737Z,2.80
2022-10-09T21:16:49.686Z,3.17
2022-10-09T21:19:35.322Z,3.47
2022-10-09T21:22:20.915Z,4.10
2022-10-09T21:25:06.558Z,2.22
2022-10-09T21:27:52.642Z,0.82
2022-10-09T21:30:41.608Z,2.90
2022-10-09T21:33:27.258Z,1.52
2022-10-09T21:36:30.499Z,3.05
2022-10-09T21:39:16.421Z,3.60
2022-10-09T21:42:01.874Z,3.92
2022-10-09T21:44:47.478Z,0.75
2022-10-09T21:47:33.179Z,3.70
2022-10-09T21:50:18.842Z,1.75
2022-10-09T21:53:04.324Z,1.10
2022-10-09T21:55:49.941Z,1.17
2022-10-09T21:58:38.747Z,2.58
2022-10-09T22:01:24.400Z,1.40
2022-10-09T22:04:09.764Z,0.20
2022-10-09T22:06:55.346Z,1.50
2022-10-09T22:09:42.049Z,1.98
2022-10-09T22:12:27.431Z,3.30
2022-10-09T22:15:13.197Z,6.30
2022-10-09T22:17:58.528Z,1.40
2022-10-09T22:20:46.107Z,0.95
2022-10-09T22:23:32.432Z,0.50
2022-10-09T22:26:21.509Z,0.10
2022-10-09T22:29:07.239Z,0.73
2022-10-09T22:31:53.140Z,0.68
2022-10-09T22:34:38.974Z,0.30
2022-10-09T22:37:24.513Z,2.20
2022-10-09T22:40:10.459Z,8.35
2022-10-09T22:42:55.972Z,5.55
2022-10-09T22:45:41.606Z,1.55
2022-10-09T22:48:27.360Z,2.83
2022-10-09T22:51:16.347Z,0.98
2022-10-09T22:54:02.100Z,1.00
2022-10-09T22:56:47.324Z,0.60
2022-10-09T22:59:32.896Z,0.63
2022-10-09T23:02:19.007Z,1.30
2022-10-09T23:05:04.669Z,1.75
2022-10-09T23:07:50.425Z,3.03
2022-10-09T23:10:40.295Z,0.30
2022-10-09T23:13:25.712Z,0.63
2022-10-09T23:16:12.812Z,0.10
2022-10-09T23:19:05.494Z,0.52
2022-10-09T23:21:52.075Z,1.10
2022-10-09T23:24:37.718Z,5.70
2022-10-09T23:27:23.333Z,2.30
2022-10-09T23:30:09.361Z,4.35
2022-10-09T23:32:55.010Z,5.55
2022-10-09T23:35:44.228Z,6.45
2022-10-09T23:38:30.064Z,3.53
2022-10-09T23:41:21.537Z,3.50
2022-10-09T23:44:07.269Z,3.83
2022-10-09T23:46:52.965Z,4.20
2022-10-09T23:49:38.709Z,5.05
2022-10-09T23:52:24.218Z,1.85
2022-10-09T23:55:09.829Z,2.15
2022-10-09T23:57:55.466Z,1.02
